Terminal Aerodrome Forecast
Issued by NWS

Home | Current Version | Previous Version | Text Only | Print | Product List | Glossary On
Versions: 1 2 3 4 5 6 7 8 9 10 11 12 13 14 15 16 17
114
FTUS46 KMFR 260524
TAFOTH
TAF
KOTH 260524Z 2606/2706 15005KT P6SM BKN040 OVC120
     FM261000 16007KT P6SM -RA SCT020 OVC050 WS020/20040KT
     FM262100 23012KT P6SM -RA BKN030 OVC050=

USA.gov is the U.S. government's official web portal to all federal, state and local government web resources and services.